Time;durP1;ratioP1;P1;durP2;ratioP2;P2;SDS_P1;SDS_P2;PMS_P1;PMS_P2;Temp;Humidity;BMP_temperature;BMP_pressure;BME280_temperature;BME280_humidity;BME280_pressure;Samples;Min_cycle;Max_cycle;Signal;HPM_P1;HPM_P2
2023/01/28 00:01:10;;;;;;;14.13;7.65;;;2.60;99.90;;;;;;5003245;28;20054;-72
2023/01/28 00:03:37;;;;;;;14.00;7.38;;;2.50;99.90;;;;;;5003800;28;20066;-72
2023/01/28 00:06:05;;;;;;;12.55;6.22;;;2.50;99.90;;;;;;5004074;28;20027;-72
2023/01/28 00:08:32;;;;;;;11.80;6.50;;;2.50;99.90;;;;;;5001661;28;20026;-73
2023/01/28 00:10:59;;;;;;;9.98;5.60;;;2.50;99.90;;;;;;5002388;28;20027;-73
2023/01/28 00:13:25;;;;;;;15.05;6.35;;;2.60;99.90;;;;;;5003577;28;20041;-72
2023/01/28 00:16:01;;;;;;;11.85;6.45;;;2.60;99.90;;;;;;5003842;28;20100;-73
2023/01/28 00:18:27;;;;;;;13.75;6.32;;;2.50;99.90;;;;;;5003085;28;20037;-72
2023/01/28 00:20:58;;;;;;;18.20;7.38;;;2.50;99.90;;;;;;5002423;28;20042;-73
2023/01/28 00:23:25;;;;;;;15.57;6.85;;;2.50;99.90;;;;;;5004067;28;20065;-74
2023/01/28 00:25:53;;;;;;;11.75;6.60;;;2.50;99.90;;;;;;5001965;28;20054;-74
2023/01/28 00:28:21;;;;;;;13.23;6.88;;;2.50;99.90;;;;;;5002282;28;20057;-73
2023/01/28 00:30:46;;;;;;;15.90;7.00;;;2.50;99.90;;;;;;5002619;28;20036;-73
2023/01/28 00:33:12;;;;;;;13.98;6.88;;;2.60;99.90;;;;;;5002421;28;20049;-73
2023/01/28 00:35:37;;;;;;;11.10;6.50;;;2.60;99.90;;;;;;5003867;28;20387;-73
2023/01/28 00:38:03;;;;;;;19.17;7.40;;;2.60;99.90;;;;;;5001918;28;20487;-73
2023/01/28 00:40:29;;;;;;;11.35;6.10;;;2.50;99.90;;;;;;5002331;28;20038;-73
2023/01/28 00:42:56;;;;;;;14.40;6.53;;;2.50;99.90;;;;;;5003441;28;20026;-74
2023/01/28 00:45:22;;;;;;;14.80;6.40;;;2.50;99.90;;;;;;5002292;28;20077;-75
2023/01/28 00:47:47;;;;;;;16.15;6.40;;;2.50;99.90;;;;;;5002319;28;20045;-73
2023/01/28 00:50:13;;;;;;;13.05;7.07;;;2.40;99.90;;;;;;5004193;28;20031;-73
2023/01/28 00:52:39;;;;;;;10.70;6.35;;;2.50;99.90;;;;;;4995884;28;20035;-73
2023/01/28 00:55:05;;;;;;;11.85;6.82;;;2.50;99.90;;;;;;4993264;28;20030;-73
2023/01/28 00:57:32;;;;;;;11.23;6.97;;;2.40;99.90;;;;;;4992119;28;20058;-73
2023/01/28 00:59:58;;;;;;;15.88;7.43;;;2.40;99.90;;;;;;4993581;28;20027;-73
2023/01/28 01:02:24;;;;;;;13.15;7.28;;;2.40;99.90;;;;;;4995027;28;20026;-74
2023/01/28 01:04:59;;;;;;;14.02;6.40;;;2.40;99.90;;;;;;4993133;28;20057;-72
2023/01/28 01:07:40;;;;;;;8.68;5.70;;;2.40;99.90;;;;;;4992346;28;20046;-73
2023/01/28 01:10:13;;;;;;;11.25;5.90;;;2.40;99.90;;;;;;4990907;28;20832;-73
2023/01/28 01:12:39;;;;;;;12.48;6.03;;;2.40;99.90;;;;;;4997784;28;20041;-73
2023/01/28 01:15:10;;;;;;;11.05;6.15;;;2.40;99.90;;;;;;5012406;28;20047;-72
2023/01/28 01:17:37;;;;;;;14.52;6.32;;;2.40;99.90;;;;;;4996680;28;20027;-73
2023/01/28 01:20:04;;;;;;;12.35;6.65;;;2.40;99.90;;;;;;4994613;28;20019;-73
2023/01/28 01:22:33;;;;;;;14.18;7.15;;;2.40;99.90;;;;;;4994864;28;20077;-74
2023/01/28 01:24:59;;;;;;;12.60;7.55;;;2.50;99.90;;;;;;4999598;28;20030;-73
2023/01/28 01:27:25;;;;;;;12.75;6.78;;;2.50;99.90;;;;;;4993830;28;20038;-73
2023/01/28 01:29:51;;;;;;;15.05;6.63;;;2.50;99.90;;;;;;4995995;28;20103;-73
2023/01/28 01:32:17;;;;;;;11.55;7.05;;;2.50;99.90;;;;;;4994372;28;20406;-72
2023/01/28 01:34:43;;;;;;;11.75;6.38;;;2.40;99.90;;;;;;5000669;28;20034;-73
2023/01/28 01:37:09;;;;;;;12.40;7.15;;;2.50;99.90;;;;;;4995496;28;20026;-72
2023/01/28 01:39:35;;;;;;;14.88;7.45;;;2.50;99.90;;;;;;4994294;28;20094;-73
2023/01/28 01:42:01;;;;;;;10.75;7.32;;;2.50;99.90;;;;;;4993785;28;20039;-72
2023/01/28 01:44:58;;;;;;;13.63;7.35;;;2.50;99.90;;;;;;4996197;28;20023;-73
2023/01/28 01:47:42;;;;;;;13.60;7.20;;;2.40;99.90;;;;;;4999609;28;20038;-72
2023/01/28 01:50:48;;;;;;;13.90;7.57;;;2.40;99.90;;;;;;4993859;28;20066;-72
2023/01/28 01:53:17;;;;;;;16.98;8.30;;;2.40;99.90;;;;;;4993497;28;20054;-73
2023/01/28 01:55:47;;;;;;;16.17;8.57;;;2.40;99.90;;;;;;4993641;28;20047;-72
2023/01/28 01:58:18;;;;;;;15.55;8.20;;;2.40;99.90;;;;;;4995514;28;20090;-72
2023/01/28 02:00:45;;;;;;;17.55;8.35;;;2.40;99.90;;;;;;4995065;28;20034;-74
2023/01/28 02:03:11;;;;;;;16.27;8.13;;;2.40;99.90;;;;;;4994591;28;20030;-73
2023/01/28 02:05:38;;;;;;;14.50;8.10;;;2.40;99.90;;;;;;4992830;28;20026;-73
2023/01/28 02:08:22;;;;;;;14.32;7.43;;;2.40;99.90;;;;;;5002764;28;20041;-73
2023/01/28 02:10:49;;;;;;;14.13;8.15;;;2.30;99.90;;;;;;4995094;28;20034;-73
2023/01/28 02:13:18;;;;;;;14.30;7.68;;;2.30;99.90;;;;;;4993061;28;20082;-73
2023/01/28 02:15:44;;;;;;;15.38;8.27;;;2.30;99.90;;;;;;4995211;28;20038;-73
2023/01/28 02:18:10;;;;;;;15.70;8.80;;;2.30;99.90;;;;;;4993690;28;20027;-73
2023/01/28 02:21:05;;;;;;;16.45;8.20;;;2.30;99.90;;;;;;5000273;28;20116;-73
2023/01/28 02:23:51;;;;;;;19.23;9.75;;;2.20;99.90;;;;;;5004335;28;20034;-73
2023/01/28 02:26:23;;;;;;;18.98;10.43;;;2.10;99.90;;;;;;5005858;28;20065;-73
2023/01/28 02:28:52;;;;;;;18.45;10.18;;;2.10;99.90;;;;;;5005806;28;20061;-73
2023/01/28 02:31:36;;;;;;;21.10;10.23;;;2.10;99.90;;;;;;5004558;28;20041;-73
2023/01/28 02:34:09;;;;;;;16.27;9.88;;;2.10;99.90;;;;;;5005549;28;20026;-74
2023/01/28 02:36:48;;;;;;;19.63;10.45;;;2.10;99.90;;;;;;5004337;28;20038;-74
2023/01/28 02:39:19;;;;;;;22.20;10.20;;;2.10;99.90;;;;;;5005451;28;20433;-73
2023/01/28 02:42:15;;;;;;;14.55;8.60;;;2.00;99.90;;;;;;5005316;28;20045;-73
2023/01/28 02:44:40;;;;;;;13.82;8.50;;;2.00;99.90;;;;;;5002041;28;20034;-73
2023/01/28 02:47:56;;;;;;;15.45;8.00;;;1.90;99.90;;;;;;5002947;28;20031;-73
2023/01/28 02:50:00;;;;;;;19.48;9.25;;;1.90;99.90;;;;;;5011404;28;20049;-73
2023/01/28 02:55:38;;;;;;;15.02;8.52;;;1.90;99.90;;;;;;5005260;28;20077;-74
2023/01/28 02:58:32;;;;;;;13.45;7.85;;;1.90;99.90;;;;;;5004231;28;20026;-72
2023/01/28 03:01:09;;;;;;;14.23;7.97;;;1.90;99.90;;;;;;5004922;28;20039;-74
2023/01/28 03:03:41;;;;;;;12.55;7.47;;;2.00;99.90;;;;;;5005031;28;20081;-73
2023/01/28 03:06:11;;;;;;;17.08;8.45;;;2.00;99.90;;;;;;5004874;28;20109;-73
2023/01/28 03:36:50;;;;;;;17.48;9.82;;;2.10;99.90;;;;;;5004646;28;20041;-73
2023/01/28 03:39:23;;;;;;;17.38;9.18;;;2.00;99.90;;;;;;5003328;28;20049;-73
2023/01/28 03:42:03;;;;;;;19.25;10.23;;;2.00;99.90;;;;;;5002652;28;20054;-74
2023/01/28 03:47:14;;;;;;;22.25;9.70;;;2.00;99.90;;;;;;5004256;28;20045;-74
2023/01/28 03:49:45;;;;;;;20.80;10.38;;;2.00;99.90;;;;;;5004254;28;20082;-73
2023/01/28 03:52:11;;;;;;;14.70;9.10;;;2.00;99.90;;;;;;5005003;28;20026;-73
2023/01/28 03:54:37;;;;;;;18.00;9.07;;;2.00;99.90;;;;;;5003565;28;20106;-73
2023/01/28 03:57:05;;;;;;;16.13;9.73;;;1.90;99.90;;;;;;5004067;28;20047;-74
2023/01/28 03:59:33;;;;;;;18.15;9.30;;;1.80;99.90;;;;;;5004488;28;20069;-74
2023/01/28 04:01:59;;;;;;;19.08;10.02;;;1.70;99.90;;;;;;5004853;28;20046;-74
2023/01/28 04:04:24;;;;;;;17.67;9.00;;;1.70;99.90;;;;;;5002118;28;20026;-74
2023/01/28 04:06:54;;;;;;;17.35;9.07;;;1.70;99.90;;;;;;5004328;28;20041;-73
2023/01/28 04:09:21;;;;;;;17.48;9.35;;;1.70;99.90;;;;;;5004261;28;20031;-73
2023/01/28 04:11:47;;;;;;;16.75;9.00;;;1.70;99.90;;;;;;5004620;28;20038;-73
2023/01/28 04:14:14;;;;;;;20.60;10.35;;;1.80;99.90;;;;;;5004500;28;20050;-72
2023/01/28 04:16:40;;;;;;;18.63;9.73;;;1.80;99.90;;;;;;5004446;28;20026;-73
2023/01/28 04:19:06;;;;;;;20.95;10.45;;;1.80;99.90;;;;;;5002770;28;20026;-73
2023/01/28 04:21:32;;;;;;;20.85;10.18;;;1.80;99.90;;;;;;5004133;28;20552;-73
2023/01/28 04:23:57;;;;;;;24.60;10.63;;;1.80;99.90;;;;;;5002598;28;20089;-73
2023/01/28 04:26:23;;;;;;;23.02;9.25;;;1.70;99.90;;;;;;5004197;28;20044;-74
2023/01/28 04:28:49;;;;;;;15.55;9.75;;;1.70;99.90;;;;;;5002727;28;20030;-72
2023/01/28 04:31:14;;;;;;;19.15;10.32;;;1.70;99.90;;;;;;5004123;28;20117;-72
2023/01/28 04:33:40;;;;;;;19.58;10.38;;;1.70;99.90;;;;;;5004039;28;20324;-72
2023/01/28 04:36:05;;;;;;;24.30;10.93;;;1.70;99.90;;;;;;5004047;28;20031;-72
2023/01/28 04:38:31;;;;;;;18.15;10.32;;;1.60;99.90;;;;;;5003953;28;20038;-73
2023/01/28 04:40:56;;;;;;;20.95;10.98;;;1.60;99.90;;;;;;5002124;28;20041;-73
2023/01/28 04:43:22;;;;;;;18.38;9.77;;;1.60;99.90;;;;;;5002200;28;20050;-73
2023/01/28 04:45:48;;;;;;;20.30;10.30;;;1.50;99.90;;;;;;5004723;28;20041;-74
2023/01/28 04:48:15;;;;;;;23.10;10.20;;;1.50;99.90;;;;;;5007763;28;20039;-72
2023/01/28 04:50:41;;;;;;;18.60;9.90;;;1.40;99.90;;;;;;5005992;28;20022;-73
2023/01/28 04:53:07;;;;;;;17.02;9.57;;;1.40;99.90;;;;;;5006129;28;20034;-74
2023/01/28 04:55:33;;;;;;;18.67;9.35;;;1.40;99.90;;;;;;5003824;28;20078;-74
2023/01/28 04:57:58;;;;;;;23.27;10.15;;;1.30;99.90;;;;;;4997950;28;20030;-74
2023/01/28 05:00:24;;;;;;;17.67;9.85;;;1.30;99.90;;;;;;5005370;28;20042;-74
2023/01/28 05:02:50;;;;;;;21.88;11.02;;;1.20;99.90;;;;;;5006945;28;20039;-73
2023/01/28 05:05:15;;;;;;;20.95;10.70;;;1.20;99.90;;;;;;5006609;28;20026;-73
2023/01/28 05:07:41;;;;;;;23.92;10.65;;;1.10;99.90;;;;;;5006716;28;20048;-73
2023/01/28 05:10:07;;;;;;;23.98;11.63;;;1.10;99.90;;;;;;5005935;28;20030;-73
2023/01/28 05:12:33;;;;;;;23.88;11.10;;;1.00;99.90;;;;;;5006356;28;20034;-73
2023/01/28 05:14:59;;;;;;;23.02;11.63;;;1.00;99.90;;;;;;5005768;28;20177;-74
2023/01/28 05:17:28;;;;;;;27.98;12.25;;;1.00;99.90;;;;;;5005764;28;20033;-73
2023/01/28 05:19:54;;;;;;;23.00;11.98;;;0.90;99.90;;;;;;5006962;28;20491;-73
2023/01/28 05:22:19;;;;;;;23.10;12.15;;;0.90;99.90;;;;;;5007466;28;20050;-73
2023/01/28 05:24:45;;;;;;;21.13;10.95;;;0.80;99.90;;;;;;5007367;28;20042;-72
2023/01/28 05:27:10;;;;;;;22.85;11.95;;;0.80;99.90;;;;;;5005644;28;20499;-73
2023/01/28 05:29:36;;;;;;;24.77;12.43;;;0.80;99.90;;;;;;5007266;28;20030;-73
2023/01/28 05:32:02;;;;;;;24.30;12.93;;;0.70;99.90;;;;;;5005522;28;20109;-72
2023/01/28 05:34:27;;;;;;;23.50;12.68;;;0.60;99.90;;;;;;5007259;28;20546;-74
2023/01/28 05:36:53;;;;;;;29.35;13.43;;;0.60;99.90;;;;;;5006158;28;20026;-74
2023/01/28 05:39:18;;;;;;;24.55;13.30;;;0.50;99.90;;;;;;5005945;28;20035;-73
2023/01/28 05:41:44;;;;;;;28.10;12.93;;;0.50;99.90;;;;;;5005830;28;20038;-73
2023/01/28 05:44:09;;;;;;;24.23;14.00;;;0.40;99.90;;;;;;5007382;28;20026;-73
2023/01/28 05:46:35;;;;;;;23.50;12.40;;;0.40;99.90;;;;;;5007257;28;20396;-73
2023/01/28 05:49:01;;;;;;;29.10;13.45;;;0.40;99.90;;;;;;5005955;28;20030;-73
2023/01/28 05:51:26;;;;;;;25.65;13.13;;;0.40;99.90;;;;;;5007161;28;20069;-73
2023/01/28 05:53:52;;;;;;;24.45;12.65;;;0.40;99.90;;;;;;5005852;28;20113;-74
2023/01/28 05:56:17;;;;;;;30.77;13.48;;;0.30;99.90;;;;;;5005045;28;20058;-73
2023/01/28 05:58:43;;;;;;;25.20;12.45;;;0.30;99.90;;;;;;5005633;28;20110;-74
2023/01/28 06:01:08;;;;;;;25.67;13.18;;;0.20;99.90;;;;;;5006544;28;20702;-73
2023/01/28 06:03:34;;;;;;;25.98;12.35;;;0.20;99.90;;;;;;5005575;28;20041;-74
2023/01/28 06:06:00;;;;;;;27.73;12.45;;;0.20;99.90;;;;;;5005491;28;20022;-73
2023/01/28 06:08:26;;;;;;;22.92;11.95;;;0.20;99.90;;;;;;5004754;28;20049;-74
2023/01/28 06:10:51;;;;;;;25.60;12.23;;;0.10;99.90;;;;;;5006918;28;20030;-74
2023/01/28 06:13:17;;;;;;;28.70;13.38;;;0.10;99.90;;;;;;5005253;28;20076;-73
2023/01/28 06:15:42;;;;;;;24.60;13.35;;;0.10;99.90;;;;;;5005386;28;20039;-73
2023/01/28 06:18:08;;;;;;;28.60;13.40;;;0.10;99.90;;;;;;5001449;28;20110;-72
2023/01/28 06:20:34;;;;;;;33.80;13.75;;;0.10;99.90;;;;;;5004248;28;20057;-73
2023/01/28 06:22:59;;;;;;;25.33;12.48;;;0.10;99.90;;;;;;5003123;28;20039;-73
2023/01/28 06:25:25;;;;;;;25.38;13.38;;;0.10;99.90;;;;;;5021618;28;20026;-73
2023/01/28 06:27:50;;;;;;;24.05;12.38;;;0.00;99.90;;;;;;5006370;28;20034;-73
2023/01/28 06:30:16;;;;;;;25.27;12.93;;;0.00;99.90;;;;;;5005980;28;20104;-73
2023/01/28 06:32:43;;;;;;;28.50;14.10;;;0.00;99.90;;;;;;5006016;28;20022;-73
2023/01/28 06:35:09;;;;;;;28.23;12.82;;;-0.10;99.90;;;;;;4999167;28;20035;-72
2023/01/28 06:37:35;;;;;;;27.25;13.75;;;-0.10;99.90;;;;;;5000041;28;20027;-72
2023/01/28 06:40:01;;;;;;;32.00;13.95;;;-0.10;99.90;;;;;;4995919;28;20035;-71
2023/01/28 06:42:27;;;;;;;29.23;13.98;;;-0.10;99.90;;;;;;4998419;28;20034;-73
2023/01/28 06:44:52;;;;;;;28.30;14.07;;;-0.10;99.90;;;;;;4994765;28;20030;-72
2023/01/28 06:47:18;;;;;;;30.92;14.65;;;-0.10;99.90;;;;;;4994664;28;20029;-71
2023/01/28 06:49:43;;;;;;;29.83;14.52;;;-0.20;99.90;;;;;;4991220;28;20118;-71
2023/01/28 06:52:09;;;;;;;33.45;14.57;;;-0.20;99.90;;;;;;4985138;28;20087;-72
2023/01/28 06:54:35;;;;;;;30.80;13.90;;;-0.30;99.90;;;;;;5000985;28;20026;-72
2023/01/28 06:57:00;;;;;;;33.60;14.63;;;-0.40;99.90;;;;;;5002582;28;20051;-72
2023/01/28 06:59:26;;;;;;;28.33;14.30;;;-0.40;99.90;;;;;;4996981;28;20058;-73
2023/01/28 07:01:51;;;;;;;28.60;13.52;;;-0.40;99.90;;;;;;5000523;28;20052;-73
2023/01/28 07:04:17;;;;;;;31.90;13.98;;;-0.40;99.90;;;;;;5003838;28;20023;-71
2023/01/28 07:06:43;;;;;;;30.25;14.57;;;-0.40;99.90;;;;;;5003714;28;20117;-72
2023/01/28 07:09:08;;;;;;;30.90;15.73;;;-0.40;99.90;;;;;;4995243;28;20022;-72
2023/01/28 07:11:34;;;;;;;32.67;15.50;;;-0.50;99.90;;;;;;5003608;28;20041;-73
2023/01/28 07:14:00;;;;;;;31.02;15.32;;;-0.40;99.90;;;;;;5005721;28;20022;-73
2023/01/28 07:16:25;;;;;;;36.58;16.52;;;-0.40;99.90;;;;;;5003203;28;20113;-73
2023/01/28 07:18:51;;;;;;;32.80;15.82;;;-0.40;99.90;;;;;;5003953;28;20645;-74
2023/01/28 07:21:16;;;;;;;37.58;17.17;;;-0.40;99.90;;;;;;5005639;28;20112;-73
2023/01/28 07:23:42;;;;;;;33.97;15.73;;;-0.50;99.90;;;;;;5005481;28;20034;-73
2023/01/28 07:26:08;;;;;;;37.53;16.25;;;-0.50;99.90;;;;;;5004749;28;20046;-73
2023/01/28 07:28:33;;;;;;;39.88;17.00;;;-0.50;99.90;;;;;;5005076;28;20119;-73
2023/01/28 07:30:59;;;;;;;41.58;17.85;;;-0.50;99.90;;;;;;5003485;28;20018;-73
2023/01/28 07:33:24;;;;;;;39.05;16.98;;;-0.40;99.90;;;;;;5001754;28;20033;-73
2023/01/28 07:35:50;;;;;;;37.47;17.00;;;-0.40;99.90;;;;;;5005256;28;20026;-76
2023/01/28 07:38:16;;;;;;;34.85;16.83;;;-0.30;99.90;;;;;;5003558;28;20031;-73
2023/01/28 07:40:42;;;;;;;42.42;17.38;;;-0.30;99.90;;;;;;5003355;28;20061;-73
2023/01/28 07:43:08;;;;;;;35.67;16.90;;;-0.30;99.90;;;;;;5001836;28;20022;-74
2023/01/28 07:45:34;;;;;;;38.75;16.40;;;-0.20;99.90;;;;;;5003202;28;20029;-73
2023/01/28 07:48:02;;;;;;;33.22;15.45;;;-0.20;99.90;;;;;;5004613;28;20030;-73
2023/01/28 07:50:29;;;;;;;34.17;15.93;;;-0.10;99.90;;;;;;5005062;28;20018;-75
2023/01/28 07:52:58;;;;;;;36.88;16.00;;;-0.10;99.90;;;;;;5003718;28;20513;-74
2023/01/28 07:55:24;;;;;;;33.53;16.63;;;0.00;99.90;;;;;;5004666;28;20541;-74
2023/01/28 07:57:56;;;;;;;37.20;17.13;;;0.20;99.90;;;;;;5003534;28;20023;-74
2023/01/28 08:00:23;;;;;;;36.58;16.60;;;0.30;99.90;;;;;;5003507;28;20033;-75
2023/01/28 08:02:49;;;;;;;41.92;18.30;;;0.40;99.90;;;;;;5004823;28;20030;-73
2023/01/28 08:05:19;;;;;;;66.43;25.38;;;0.40;99.90;;;;;;5004496;28;20026;-73
2023/01/28 08:07:47;;;;;;;75.63;26.52;;;0.60;99.90;;;;;;5003240;28;20031;-74
2023/01/28 08:10:13;;;;;;;61.63;24.15;;;0.90;99.90;;;;;;5002134;28;20038;-73
2023/01/28 08:12:39;;;;;;;72.57;25.65;;;1.10;99.90;;;;;;4999602;28;20031;-74
2023/01/28 08:15:05;;;;;;;64.07;25.65;;;1.20;99.90;;;;;;5004891;28;20026;-74
2023/01/28 08:17:31;;;;;;;64.68;24.73;;;1.10;99.90;;;;;;5001485;28;20034;-73
2023/01/28 08:19:56;;;;;;;60.95;25.58;;;1.00;99.90;;;;;;5002750;28;20092;-73
2023/01/28 08:22:26;;;;;;;59.17;23.63;;;0.90;99.90;;;;;;4999022;28;20092;-74
2023/01/28 08:24:52;;;;;;;54.22;20.33;;;0.90;99.90;;;;;;4984126;28;20086;-74
2023/01/28 08:27:17;;;;;;;37.42;17.02;;;1.10;99.90;;;;;;4984823;28;20023;-73
2023/01/28 08:29:43;;;;;;;35.40;15.95;;;1.40;99.90;;;;;;4985339;28;20066;-73
2023/01/28 08:32:10;;;;;;;32.15;15.43;;;1.90;99.90;;;;;;4985020;28;20031;-74
2023/01/28 08:34:35;;;;;;;33.53;15.52;;;2.40;99.90;;;;;;5000156;28;20045;-73
2023/01/28 08:37:01;;;;;;;29.95;15.45;;;2.90;99.90;;;;;;5004260;28;20031;-74
2023/01/28 08:39:26;;;;;;;33.53;16.77;;;3.40;99.90;;;;;;5004360;28;20082;-74
2023/01/28 08:41:52;;;;;;;32.17;16.48;;;3.80;99.90;;;;;;5004497;28;20065;-73
2023/01/28 08:44:18;;;;;;;30.02;15.63;;;4.10;99.90;;;;;;5004469;28;20034;-73
2023/01/28 08:46:43;;;;;;;28.65;15.07;;;4.50;99.90;;;;;;5004247;28;20035;-73
2023/01/28 08:49:09;;;;;;;31.17;16.00;;;4.80;99.90;;;;;;4999355;28;20035;-74
2023/01/28 08:51:34;;;;;;;28.85;14.68;;;5.10;99.90;;;;;;4987783;28;20038;-74
2023/01/28 08:54:01;;;;;;;29.58;14.13;;;5.40;99.90;;;;;;5002406;28;20022;-74
2023/01/28 08:56:27;;;;;;;29.75;13.75;;;5.50;99.90;;;;;;4997795;28;20040;-74
2023/01/28 08:58:53;;;;;;;28.20;14.05;;;5.60;99.90;;;;;;4994001;28;20030;-74
2023/01/28 09:01:21;;;;;;;27.40;15.52;;;5.60;99.90;;;;;;4990144;28;20045;-73
2023/01/28 09:03:46;;;;;;;33.30;16.50;;;5.50;99.90;;;;;;4994202;28;20038;-73
2023/01/28 09:06:12;;;;;;;29.25;14.30;;;5.50;99.90;;;;;;5002366;28;20402;-73
2023/01/28 09:08:38;;;;;;;25.45;14.32;;;5.50;99.90;;;;;;5002922;28;20157;-74
2023/01/28 09:11:03;;;;;;;27.33;15.32;;;5.70;99.90;;;;;;5003607;28;20058;-72
2023/01/28 09:13:29;;;;;;;31.05;16.15;;;5.90;99.90;;;;;;5000964;28;20084;-72
2023/01/28 09:15:55;;;;;;;31.77;17.58;;;6.10;99.90;;;;;;5002607;28;20046;-73
2023/01/28 09:18:21;;;;;;;31.48;16.95;;;6.20;99.90;;;;;;5003071;28;20061;-73
2023/01/28 09:20:47;;;;;;;30.98;16.13;;;6.10;99.90;;;;;;5002620;28;20133;-73
2023/01/28 09:23:13;;;;;;;33.28;17.13;;;5.90;99.90;;;;;;5001466;28;20034;-72
2023/01/28 09:25:39;;;;;;;29.42;15.52;;;5.80;99.90;;;;;;4984723;28;20027;-72
2023/01/28 09:28:05;;;;;;;32.20;15.95;;;5.60;99.90;;;;;;4988879;28;20030;-72
2023/01/28 09:30:32;;;;;;;32.47;16.35;;;5.40;99.90;;;;;;5003328;28;20062;-73
2023/01/28 09:32:57;;;;;;;27.90;15.07;;;5.40;99.90;;;;;;5005511;28;20026;-73
2023/01/28 09:35:23;;;;;;;28.48;16.00;;;5.30;99.90;;;;;;5003547;28;20101;-73
2023/01/28 09:37:50;;;;;;;33.15;16.08;;;5.20;99.90;;;;;;4998246;28;20042;-72
2023/01/28 09:40:20;;;;;;;29.75;15.57;;;5.20;99.90;;;;;;4994356;28;20094;-72
2023/01/28 09:43:00;;;;;;;33.65;15.18;;;4.90;99.90;;;;;;4988709;28;20069;-72
2023/01/28 09:45:47;;;;;;;33.55;15.60;;;4.60;99.90;;;;;;4990028;28;20057;-72
2023/01/28 09:48:20;;;;;;;28.75;14.90;;;4.40;99.90;;;;;;5014258;28;20069;-73
2023/01/28 09:50:49;;;;;;;30.43;15.20;;;4.10;99.90;;;;;;5001595;28;20099;-73
2023/01/28 09:53:24;;;;;;;30.98;15.32;;;4.00;99.90;;;;;;5003199;28;20026;-72
2023/01/28 09:56:01;;;;;;;31.65;15.57;;;3.90;99.90;;;;;;5013668;28;20054;-74
2023/01/28 09:58:27;;;;;;;33.50;15.90;;;3.70;99.90;;;;;;5004982;28;20034;-70
2023/01/28 10:01:23;;;;;;;36.63;16.48;;;3.50;99.90;;;;;;4996812;28;20046;-72
2023/01/28 10:03:58;;;;;;;35.47;16.17;;;3.50;99.90;;;;;;4998828;28;20482;-73
2023/01/28 10:07:04;;;;;;;31.48;15.43;;;3.50;99.90;;;;;;4997100;28;20026;-72
2023/01/28 10:09:56;;;;;;;30.10;14.50;;;3.70;99.90;;;;;;4999721;28;20038;-71
2023/01/28 10:12:37;;;;;;;35.50;16.02;;;4.00;99.90;;;;;;5005004;28;20026;-72
2023/01/28 10:15:03;;;;;;;31.15;15.43;;;4.00;99.90;;;;;;5005088;28;20038;-73
2023/01/28 10:17:46;;;;;;;30.55;15.63;;;4.10;99.90;;;;;;4999523;28;20165;-73
2023/01/28 10:20:14;;;;;;;37.00;16.38;;;4.10;99.90;;;;;;4995138;28;20030;-72
2023/01/28 10:22:48;;;;;;;35.55;17.20;;;4.40;99.90;;;;;;5004893;28;20098;-73
2023/01/28 10:25:19;;;;;;;32.28;15.50;;;4.80;99.90;;;;;;5003714;28;20108;-72
2023/01/28 10:27:47;;;;;;;32.17;16.65;;;5.10;99.90;;;;;;5005780;28;20035;-74
2023/01/28 10:30:41;;;;;;;32.58;15.82;;;5.40;99.90;;;;;;5005649;28;20049;-73
2023/01/28 10:33:15;;;;;;;32.33;17.15;;;5.70;99.90;;;;;;5004655;28;20041;-73
2023/01/28 10:35:42;;;;;;;;;;;6.20;99.90;;;;;;5003123;28;20081;-74
2023/01/28 10:38:13;;;;;;;34.63;16.17;;;6.50;99.90;;;;;;5002447;28;19905;-74
2023/01/28 10:40:41;;;;;;;34.05;15.88;;;6.70;99.90;;;;;;4993893;28;20506;-73
2023/01/28 10:43:07;;;;;;;32.78;16.08;;;6.90;99.90;;;;;;5001484;28;20026;-73
2023/01/28 10:45:58;;;;;;;28.17;14.70;;;6.90;99.90;;;;;;4996032;28;20089;-72
2023/01/28 10:48:46;;;;;;;32.67;15.73;;;6.60;99.90;;;;;;5009962;28;20027;-73
2023/01/28 10:51:13;;;;;;;29.52;15.38;;;6.20;99.90;;;;;;4997827;28;20018;-73
2023/01/28 10:53:43;;;;;;;32.03;15.70;;;5.80;99.90;;;;;;4996447;28;20149;-73
2023/01/28 10:56:12;;;;;;;30.65;14.73;;;5.50;99.90;;;;;;4992462;28;20050;-73
2023/01/28 10:59:01;;;;;;;31.13;15.57;;;5.20;99.90;;;;;;4997998;28;20081;-73
2023/01/28 11:01:44;;;;;;;34.38;16.35;;;5.00;99.90;;;;;;4998277;28;20098;-74
2023/01/28 11:04:20;;;;;;;33.30;15.98;;;4.80;99.90;;;;;;4999775;28;20026;-73
2023/01/28 11:07:16;;;;;;;34.33;16.15;;;4.70;99.90;;;;;;5001010;28;20126;-73
2023/01/28 11:09:49;;;;;;;32.03;15.52;;;4.70;99.90;;;;;;4994429;28;20057;-73
2023/01/28 11:12:25;;;;;;;35.33;17.43;;;5.00;99.90;;;;;;4999090;28;20026;-72
2023/01/28 11:15:03;;;;;;;39.45;17.17;;;5.10;99.90;;;;;;4996230;28;20396;-72
2023/01/28 11:17:34;;;;;;;37.15;17.33;;;5.10;99.90;;;;;;5001233;28;20055;-73
2023/01/28 11:20:27;;;;;;;33.42;14.98;;;5.70;99.90;;;;;;5004893;28;20034;-76
2023/01/28 11:22:54;;;;;;;30.98;15.05;;;6.50;99.90;;;;;;5002564;28;20101;-73
2023/01/28 11:25:30;;;;;;;34.47;14.90;;;7.30;99.90;;;;;;4999546;28;20030;-72
2023/01/28 11:27:58;;;;;;;35.60;15.65;;;8.00;99.90;;;;;;5003286;28;20069;-75
2023/01/28 11:30:32;;;;;;;30.77;15.30;;;8.50;99.90;;;;;;5005072;28;20030;-72
2023/01/28 11:33:04;;;;;;;28.23;15.30;;;8.80;99.90;;;;;;4999409;28;20022;-73
2023/01/28 11:35:30;;;;;;;30.83;14.95;;;9.20;99.90;;;;;;4993221;28;20037;-73
2023/01/28 11:37:59;;;;;;;27.80;14.13;;;9.30;99.90;;;;;;5002776;28;20080;-69
2023/01/28 11:40:26;;;;;;;26.48;14.68;;;9.20;99.90;;;;;;5000724;28;20026;-71
2023/01/28 11:42:56;;;;;;;25.45;14.30;;;8.80;99.90;;;;;;5001819;28;20046;-71
2023/01/28 11:45:29;;;;;;;24.20;13.60;;;8.70;99.90;;;;;;4998550;28;20030;-71
2023/01/28 11:48:08;;;;;;;25.67;13.18;;;8.70;99.90;;;;;;4996967;28;20030;-72
2023/01/28 11:51:05;;;;;;;23.98;13.68;;;8.40;99.90;;;;;;4997348;28;20034;-71
2023/01/28 11:53:45;;;;;;;26.70;13.60;;;8.40;99.90;;;;;;4985912;28;20046;-72
2023/01/28 11:56:22;;;;;;;24.95;13.95;;;8.70;99.90;;;;;;4997563;28;20534;-73
2023/01/28 11:59:26;;;;;;;25.85;13.52;;;8.60;99.90;;;;;;5003817;28;20030;-72
2023/01/28 12:02:08;;;;;;;26.38;12.65;;;8.10;99.90;;;;;;5001320;28;20106;-73
2023/01/28 12:04:51;;;;;;;24.85;12.90;;;7.70;99.90;;;;;;5004515;28;20094;-71
2023/01/28 12:07:28;;;;;;;25.65;12.73;;;7.50;99.90;;;;;;5002830;28;20081;-73
2023/01/28 12:10:02;;;;;;;24.65;10.98;;;7.40;99.90;;;;;;5004351;28;20498;-73
2023/01/28 12:12:51;;;;;;;27.60;12.38;;;7.40;99.90;;;;;;5003775;28;20045;-74
2023/01/28 12:15:50;;;;;;;28.05;11.65;;;7.30;99.90;;;;;;4994583;28;20034;-73
2023/01/28 12:18:44;;;;;;;22.25;11.50;;;7.10;99.90;;;;;;4999362;28;20030;-73
2023/01/28 12:21:25;;;;;;;;;;;6.70;99.90;;;;;;4978042;28;20061;-72
2023/01/28 12:24:20;;;;;;;24.23;11.75;;;6.40;99.90;;;;;;4997186;28;19910;-74
2023/01/28 12:27:17;;;;;;;22.50;11.27;;;6.10;99.90;;;;;;5003807;28;20097;-72
2023/01/28 12:29:46;;;;;;;27.67;12.38;;;6.40;99.90;;;;;;4988620;28;20069;-72
2023/01/28 12:32:21;;;;;;;24.30;12.23;;;7.40;99.90;;;;;;5000925;28;20034;-72
2023/01/28 12:35:06;;;;;;;22.70;11.95;;;8.30;99.90;;;;;;5001788;28;20137;-73
2023/01/28 12:37:53;;;;;;;25.45;13.00;;;9.20;99.90;;;;;;5013185;28;20502;-72
2023/01/28 12:40:39;;;;;;;21.33;12.77;;;10.10;99.90;;;;;;5002595;28;20033;-72
2023/01/28 12:43:13;;;;;;;23.15;12.13;;;11.00;99.90;;;;;;5003589;28;20046;-71
2023/01/28 12:45:44;;;;;;;25.75;12.48;;;11.10;99.90;;;;;;5002782;28;20022;-70
2023/01/28 12:48:20;;;;;;;20.63;11.07;;;10.80;99.90;;;;;;5004185;28;20572;-73
2023/01/28 12:50:57;;;;;;;21.05;10.73;;;10.10;99.90;;;;;;4999345;28;20057;-73
2023/01/28 12:53:29;;;;;;;22.92;12.23;;;9.30;99.90;;;;;;4995458;28;20031;-73
2023/01/28 12:56:05;;;;;;;21.42;10.65;;;8.70;99.90;;;;;;4994569;28;20075;-71
2023/01/28 12:58:44;;;;;;;28.20;13.65;;;8.20;99.90;;;;;;4996490;28;20033;-72
2023/01/28 13:01:15;;;;;;;24.55;12.32;;;7.70;99.90;;;;;;4994984;28;20708;-72
2023/01/28 13:03:53;;;;;;;23.50;11.05;;;7.30;99.90;;;;;;4995265;28;20023;-72
2023/01/28 13:06:29;;;;;;;25.83;11.30;;;7.00;99.90;;;;;;4990798;28;20030;-72
2023/01/28 13:09:09;;;;;;;20.75;10.93;;;6.80;99.90;;;;;;4990653;28;20090;-73
2023/01/28 13:11:36;;;;;;;20.48;10.30;;;6.70;99.90;;;;;;4995909;28;20038;-73
2023/01/28 13:14:03;;;;;;;20.30;10.70;;;6.60;99.90;;;;;;4997967;28;20064;-73
2023/01/28 13:16:29;;;;;;;22.75;11.30;;;6.60;99.90;;;;;;5004701;28;20054;-73
2023/01/28 13:19:19;;;;;;;23.02;11.18;;;6.60;99.90;;;;;;5004189;28;20030;-74
2023/01/28 13:21:46;;;;;;;23.52;11.35;;;6.60;99.90;;;;;;5006548;28;20141;-72
2023/01/28 13:24:15;;;;;;;24.25;11.82;;;6.60;99.90;;;;;;4997951;28;20502;-74
2023/01/28 13:26:44;;;;;;;22.00;10.48;;;7.30;99.90;;;;;;5006278;28;20026;-73
2023/01/28 13:29:13;;;;;;;20.02;10.63;;;8.20;99.90;;;;;;5002643;28;20098;-73